Tiempo atmosférico en la estación meteorológica de Lanzarote Aeropuerto, Las Palmas (14 m.)



Fecha
DESCASC
Temp. máxima en grados centígrados (hora)
DESCASC
Temp. mínima en grados centígrados (hora)
DESCASC
Temp. media en grados centígrados
DESCASC
Racha de viento máxima en m/sg (hora)
DESCASC
Velocidad máxima media en intervalos de 10 minutos(hora)
DESCASC
Precipitaciones diarias en mm
DESCASC
Precipitaciones de 00:00 a 06:00 en mm
DESCASC
Precipitaciones de 06:00 a 12:00 en mm
DESCASC
Precipitaciones de 12:00 a 18:00 en mm
DESCASC
Precipitaciones de 18:00 a 24:00 en mm
DESCASC
14-02-2019 22.9 (15:10) 12.9 (03:40) 17.9 5.83 (11:00) 3.89 (11:20) 0 0 0 0 0
13-02-2019 21.5 (10:30) 11.4 (05:00) 16.4 6.11 (11:10) 3.89 (11:10) 0 0 0 0 0
12-02-2019 25 (13:30) 13 (06:50) 19 7.78 (12:50) 4.72 (10:10) 0 0 0 0 0
11-02-2019 25.2 (13:20) 16 (03:10) 20.6 9.17 (11:20) 5.56 (00:30) 0 0 0 0 0
10-02-2019 23.5 (16:40) 13.2 (00:00) 18.3 10.28 (10:20) 7.22 (10:20) 0 0 0 0 0
09-02-2019 19.4 (14:10) 10.8 (00:00) 15.1 7.22 (10:00) 5.28 (14:30) 0 0 0 0 0
08-02-2019 19.9 (12:10) 11.4 (00:00) 15.6 9.72 (14:30) 7.22 (14:40) 0 0 0 0 0
07-02-2019 21.1 (14:50) 12.6 (00:00) 16.9 11.39 (10:30) 7.5 (10:30) 0 0 0 0 0
06-02-2019 22.6 (13:30) 12.1 (00:00) 17.4 8.89 (20:40) 6.11 (20:50) 0 0 0 0 0
05-02-2019 21.1 (16:20) 12.8 (00:00) 17 7.78 (23:30) 5.83 (23:30) 0 0 0 0 0
04-02-2019 21.6 (15:50) 14 (00:00) 17.8 13.89 (00:40) 8.89 (00:40) 0 0 0 0 0
03-02-2019 19.7 (11:30) 15 (00:00) 17.4 17.5 (10:00) 12.5 (10:00) 0 0 0 0 0
02-02-2019 20.6 (15:40) 14.6 (00:00) 17.6 15.28 (14:40) 12.5 (16:30) 0 0 0 0 0
01-02-2019 22.4 (14:40) 16.2 (00:00) 19.3 14.44 (15:10) 9.17 (22:40) 0 0 0 0 0
31-01-2019 19.7 (15:20) 13.8 (00:00) 16.8 13.33 (16:00) 8.33 (13:30) 0 0 0 0 0
30-01-2019 21 (14:20) 14.9 (00:00) 17.9 13.33 (13:20) 10.28 (13:20) 0 0 0 0 0
29-01-2019 21.1 (12:10) 14.2 (00:00) 17.7 13.89 (16:50) 11.39 (16:30) 0 0 0 0 0
28-01-2019 20.7 (13:20) 14.8 (00:00) 17.8 17.5 (14:10) 13.33 (14:20) 0 0 0 0 0
27-01-2019 21.3 (15:20) 12.5 (00:00) 16.9 12.5 (17:30) 7.22 (17:00) 0 0 0 0 0
26-01-2019 20.6 (12:00) 13.7 (00:00) 17.2 8.89 (20:40) 5.28 (10:30) 0 0 0 0 0
25-01-2019 21.3 (12:40) 13.8 (00:00) 17.5 10.83 (14:20) 7.22 (03:20) -- -- 0 0 0
24-01-2019 21.5 (14:50) 13.1 (00:00) 17.3 15.28 (11:50) 11.11 (11:30) 0 0 0 0 0
23-01-2019 20.9 (12:50) 15.1 (00:00) 18 14.44 (15:50) 9.72 (15:10) 0 0 0 0 0
22-01-2019 20.9 (12:50) 8.3 (00:00) 14.6 16.39 (10:20) 9.72 (18:00) 0 0 0 0 0
21-01-2019 20.9 (15:20) 14.6 (00:00) 17.8 16.39 (13:10) 12.78 (11:50) 0 0 0 0 0
20-01-2019 21.6 (13:40) 15 (00:00) 18.3 15.28 (16:50) 11.11 (16:50) 0 0 0 0 0
19-01-2019 19.1 (15:00) 15.1 (00:00) 17.1 12.78 (14:20) 9.17 (14:30) 0 0 0 0 0

Gráficas

Temp. máximas Temp. mínimas Temp. medias Precipitaciones Rachas de viento máximas Velocidades máximas media en intervalos de 10 minutos

Datos horarios

Fecha y hora oficial Temperatura (ºC) Velocidad del viento (km/h) Dirección del viento Racha (km/h) Dirección de racha Precipitación (mm) Presión (hPa) Tendencia (hPa) Humedad (%)
2019-02-17 23:00:00 16.5 14 Norte 35 Norte 0 1019.9 0.6 79
2019-02-17 22:00:00 16.9 19 Norte 33 Norte 0 1019.8 1.1 76
2019-02-17 21:00:00 17.2 24 Norte 37 Norte 0 1019.6 1.4 74
2019-02-17 20:00:00 17.1 21 Norte 35 Norte 0 1019.3 1.2 73
2019-02-17 19:00:00 17.7 20 Norte 42 Norte 0 1018.7 0.6 72
2019-02-17 18:00:00 20.4 21 Norte 33 Nordeste 0 1018.2 -0.2 54
2019-02-17 17:00:00 19.6 19 Este 32 Este 0 1018.1 -0.6 66
2019-02-17 16:00:00 20.7 16 Este 33 Norte 0 1018.1 -1.5 61
2019-02-17 15:00:00 19.9 22 Este 33 Este 0 1018.4 -1.8 68
2019-02-17 14:00:00 20.7 23 Este 35 Este 0 1018.7 -1.6 62
2019-02-17 13:00:00 20.9 22 Este 41 Este 0 1019.6 -0.8 60
2019-02-17 12:00:00 22.1 27 Nordeste 41 Nordeste 0 1020.2 0.3 35
2019-02-17 11:00:00 21.6 27 Nordeste 42 Norte 0 1020.3 0.6 36
2019-02-17 10:00:00 19.4 31 Norte 45 Norte 0 1020.4 1.3 60
2019-02-17 09:00:00 17 27 Norte 37 Norte 0 1019.9 1.6 76
2019-02-17 08:00:00 14.6 27 Norte 35 Noroeste 0 1019.7 1.3 83
2019-02-17 07:00:00 15.2 27 Norte 42 Noroeste 0 1019.1 0.7 83
2019-02-17 06:00:00 15.1 24 Norte 37 Norte 0 1018.3 -0.2 84
2019-02-17 05:00:00 15 23 Norte 35 Norte 0 1018.4 -0.5 85
2019-02-17 04:00:00 15.2 19 Norte 33 Noroeste 0 1018.4 -0.9 85
2019-02-17 03:00:00 15.6 26 Norte 41 Norte 0 1018.5 -1.1 83
2019-02-17 02:00:00 15.4 27 Norte 37 Noroeste 0 1018.9 -0.7 83
2019-02-17 01:00:00 15.6 19 Norte 26 Norte 0 1019.3 0 66
2019-02-17 00:00:00 15.3 16 Norte 22 Norte 0 1019.6 1 67
2019-02-16 23:00:00 16.2 11 Norte 30 Nordeste 0 1019.6 1.6 67
2019-02-16 22:00:00 16.6 18 Nordeste 30 Nordeste 0 1019.3 1.8 72
2019-02-16 21:00:00 16.6 16 Norte 32 Norte 0 1018.6 2.1 79
2019-02-16 20:00:00 17.5 24 Norte 33 Norte 0 1018 2.2 73
2019-02-16 19:00:00 18.7 21 Norte 32 Norte 0 1017.5 2 60
2019-02-16 18:00:00 20.6 18 Norte 33 Nordeste 0 1016.5 0.9 48
2019-02-16 17:00:00 22 17 Nordeste 30 Nordeste 0 1015.8 0.2 40
2019-02-16 16:00:00 22.4 20 Nordeste 35 Nordeste 0 1015.5 -0.8 35
2019-02-16 15:00:00 22.7 20 Nordeste 37 Norte 0 1015.6 -0.9 42
2019-02-16 14:00:00 22.8 24 Nordeste 45 Norte 0 1015.6 -0.8 39
2019-02-16 13:00:00 22.8 26 Nordeste 45 Nordeste 0 1016.3 -0.2 37
2019-02-16 12:00:00 21.7 34 Norte 46 Norte 0 1016.5 0.4 54
2019-02-16 11:00:00 19.7 33 Noroeste 52 Noroeste 0 1016.4 0.5 70
2019-02-16 10:00:00 18.1 26 Noroeste 45 Noroeste 0 1016.5 1 74
2019-02-16 09:00:00 16.3 21 Noroeste 33 Noroeste 0 1016.1 0.9 77
2019-02-16 08:00:00 13.7 6 Este 18 Noroeste 0 1015.9 0.9 80
2019-02-16 07:00:00 12.8 4 Norte 17 Noroeste 0 1015.5 0.6 84
2019-02-16 06:00:00 14.2 7 Noroeste 15 Sur 0 1015.2 0 80
2019-02-16 05:00:00 14.4 8 Sudoeste 30 Oeste 0 1015 -0.4 78
2019-02-16 04:00:00 14.5 10 Sur 28 Oeste 0 1014.9 -0.5 79
2019-02-16 03:00:00 14 11 Oeste 18 Oeste 0 1015.2 -0.5 80
2019-02-16 02:00:00 14.9 6 Oeste 24 Noroeste 0 1015.4 -0.9 78
2019-02-16 01:00:00 14.7 18 Noroeste 28 Noroeste 0 1015.4 -0.7 78
2019-02-16 00:00:00 13.8 9 Noroeste 28 Noroeste 0 1015.7 0.1 86
2019-02-15 23:00:00 13.9 15 Oeste 22 Oeste 0 1016.3 1.4 85
2019-02-15 22:00:00 13.7 14 Oeste 33 Noroeste 0 1016.1 1.3 85
2019-02-15 21:00:00 14.3 22 Noroeste 45 Oeste 0 1015.6 0.8 80
2019-02-15 20:00:00 14.5 16 Oeste 30 Oeste 0 1014.9 0 79
2019-02-15 19:00:00 14.4 8 Noroeste 41 Noroeste 0 1014.8 -0.4 79
2019-02-15 18:00:00 15.2 13 Oeste 37 Noroeste 0 1014.8 0.1 76
2019-02-15 17:00:00 13.3 9 Este 30 Noroeste 2.6 1014.9 -0.5 84
2019-02-15 16:00:00 14.5 21 Oeste 52 Noroeste 2 1015.2 -1.1 78
2019-02-15 15:00:00 18.5 31 Noroeste 42 Noroeste 0 1014.7 -2.7 52
2019-02-15 14:00:00 19.4 11 Sur 18 Sur 0 1015.4 -2.7 46
2019-02-15 13:00:00 19.5 14 Sur 22 Sur 0 1016.3 -2.1 44
2019-02-15 12:00:00 18.9 17 Sudeste 28 Sudeste 0 1017.4 -0.7 45
2019-02-15 11:00:00 18.6 21 Sudeste 28 Sudeste 0 1018.1 0.8 48
2019-02-15 10:00:00 18.5 22 Sur 37 Sur 0 1018.4 0.8 48
2019-02-15 09:00:00 18.2 24 Sur 41 Sur 0 1018.1 0.6 45
2019-02-15 08:00:00 17.7 27 Sur 41 Sur 0 1017.3 -0.2 52
2019-02-15 07:00:00 17.3 18 Sur 28 Sur 0 1017.6 -0.2 53
2019-02-15 06:00:00 17.9 20 Sur 37 Sudeste 0 1017.5 0.2 52
2019-02-15 05:00:00 18.3 26 Sudeste 41 Sudeste 0 1017.5 0 52
2019-02-15 04:00:00 18.7 36 Sudeste 48 Sudeste 0 1017.8 -0.4 49
2019-02-15 03:00:00 18.7 33 Sudeste 50 Sudeste 0 1017.3 -1.5 54
2019-02-15 02:00:00 19.1 35 Sudeste 48 Sudeste 0 1017.5 -1.4 53
2019-02-15 01:00:00 19.4 26 Sudeste 35 Sudeste 0 1018.2 -1.2 58
2019-02-15 00:00:00 18.5 14 Sudeste 21 Sudeste 0 1018.8 -0.2 70
2019-02-14 23:00:00 17.4 7 Este 18 Este 0 1018.9 0.5 67
2019-02-14 22:00:00 17 7 Norte 11 Norte 0 1019.4 1.2 62
2019-02-14 21:00:00 18.1 6 Nordeste 11 Este 0 1019 1 55
2019-02-14 20:00:00 19.3 3 Este 9 Nordeste 0 1018.4 0 50
2019-02-14 19:00:00 20.3 2 Nordeste 5 Sudoeste 0 1018.2 -0.8 50
2019-02-14 18:00:00 21.8 2 Sur 11 Este 0 1018 -1.2 47
2019-02-14 17:00:00 22.3 5 Sudeste 11 Sudeste 0 1018.4 -1.7 49
2019-02-14 16:00:00 22.5 6 Este 15 Sudeste 0 1019 -2.5 48
2019-02-14 15:00:00 22.7 6 Sudeste 15 Este 0 1019.2 -3.2 47
2019-02-14 14:00:00 22.3 8 Sudeste 17 Sur 0 1020.1 -2.7 46
2019-02-14 13:00:00 21.9 10 Sur 17 Sur 0 1021.5 -1.1 46
2019-02-14 12:00:00 22 11 Sur 18 Sur 0 1022.4 0.4 49
2019-02-14 11:00:00 21.8 14 Sur 21 Sur 0 1022.8 1.6 48
2019-02-14 10:00:00 21.1 10 Sur 15 Sur 0 1022.6 2.2 49
2019-02-14 09:00:00 19.6 6 Sur 13 Sudoeste 0 1022 2.1 51
2019-02-14 08:00:00 16.6 7 Sudoeste 17 Oeste 0 1021.2 1.8 57
2019-02-14 07:00:00 14 3 Noroeste 11 Nordeste 0 1020.4 0.9 69
2019-02-14 06:00:00 13.5 9 Norte 13 Norte 0 1019.9 0 66
2019-02-14 05:00:00 13.8 6 Norte 13 Noroeste 0 1019.4 -0.8 62
2019-02-14 04:00:00 13.7 7 Norte 11 Noroeste 0 1019.5 -1.2 64
2019-02-14 03:00:00 14 5 Noroeste 13 Noroeste 0 1019.9 -0.3 67
2019-02-14 02:00:00 15.7 8 Norte 17 Noroeste 0 1020.2 -0.3 71
2019-02-14 01:00:00 13.3 7 Nordeste 9 Nordeste 0 1020.7 0.2 37
2019-02-14 00:00:00 14.7 7 Este 11 Este 0 1020.2 0.3 55
2019-02-13 23:00:00 14.4 5 Oeste 9 Sur 0 1020.5 0.6 60
2019-02-13 22:00:00 15.3 4 Norte 15 Este 0 1020.5 0.8 39
2019-02-13 21:00:00 15.8 0 Calma 5 Norte 0 1019.9 0.2 57
2019-02-13 20:00:00 17.1 0 Calma 9 Noroeste 0 1019.9 0.4 90
2019-02-13 19:00:00 18.4 0 Calma 9 Sudeste 0 1019.7 -0.1 83
2019-02-13 18:00:00 19.5 6 Sudeste 13 Sudeste 0 1019.7 -0.7 80
2019-02-13 17:00:00 19.9 10 Sudeste 13 Sudeste 0 1019.5 -1 78
2019-02-13 16:00:00 21.3 5 Este 15 Sudeste 0 1019.8 -1.5 61
2019-02-13 15:00:00 20.4 8 Sudeste 18 Sudeste 0 1020.4 -1.7 75
2019-02-13 14:00:00 21.2 13 Sudeste 18 Este 0 1020.5 -1.5 68
2019-02-13 13:00:00 20.9 10 Este 18 Este 0 1021.3 -0.6 68
2019-02-13 12:00:00 20.8 12 Este 22 Este 0 1022.1 0.4 65
2019-02-13 11:00:00 21.1 11 Este 17 Este 0 1022 0.8 56
2019-02-13 10:00:00 19.6 9 Nordeste 17 Nordeste 0 1021.9 1.2 63
2019-02-13 09:00:00 16.6 10 Norte 15 Norte 0 1021.7 1.6 86
2019-02-13 08:00:00 14.1 12 Norte 15 Nordeste 0 1021.2 1.1 93
2019-02-13 07:00:00 12 10 Norte 15 Norte 0 1020.7 0.8 93
2019-02-13 06:00:00 11.7 13 Norte 15 Norte 0 1020.1 -0.1 89
2019-02-13 05:00:00 11.8 5 Norte 11 Nordeste 0 1020.1 -0.5 73
2019-02-13 04:00:00 13.1 2 Sudeste 17 Nordeste 0 1019.9 -1.2 60
2019-02-13 03:00:00 13.7 0 Calma 15 Norte 0 1020.2 -1.2 61
2019-02-13 02:00:00 15 10 Norte 17 Nordeste 0 1020.6 -0.9 57
2019-02-13 01:00:00 15.3 12 Norte 17 Norte 0 1021.1 -0.4 57
2019-02-13 00:00:00 14.3 8 Nordeste 13 Nordeste 0 1021.4 0.2 80
2019-02-12 23:00:00 13.2 6 Norte 11 Norte 0 1021.5 0.9 47
2019-02-12 22:00:00 14.4 6 Nordeste 13 Nordeste 0 1021.5 1.2 59
2019-02-12 21:00:00 16.5 7 Nordeste 15 Nordeste 0 1021.2 1.2 78
2019-02-12 20:00:00 17.7 10 Nordeste 18 Este 0 1020.6 0.7 81
2019-02-12 19:00:00 19.6 11 Nordeste 21 Nordeste 0 1020.3 0.2 73
2019-02-12 18:00:00 22.7 12 Nordeste 22 Nordeste 0 1020 -0.1 51
2019-02-12 17:00:00 22.7 14 Este 21 Este 0 1019.9 -0.6 56
2019-02-12 16:00:00 23.1 13 Este 21 Este 0 1020.1 -1 57
2019-02-12 15:00:00 24.4 14 Este 22 Este 0 1020.1 -1.5 39
2019-02-12 14:00:00 23.9 15 Este 24 Nordeste 0 1020.5 -1.3 43
2019-02-12 13:00:00 23.9 15 Este 28 Este 0 1021.1 -0.5 35
2019-02-12 12:00:00 24 14 Nordeste 26 Este 0 1021.6 0.3 34
2019-02-12 11:00:00 23.1 13 Este 26 Este 0 1021.8 0.9 35
2019-02-12 10:00:00 21.6 14 Nordeste 26 Nordeste 0 1021.6 1.1 40
2019-02-12 09:00:00 18.5 10 Nordeste 18 Norte 0 1021.3 0.9 53
2019-02-12 08:00:00 13.3 10 Norte 15 Norte 0 1020.9 0.7 54
2019-02-12 07:00:00 13.2 13 Norte 15 Norte 0 1020.5 0.1 53
2019-02-12 06:00:00 14.5 9 Norte 13 Norte 0 1020.4 -0.4 52
2019-02-12 05:00:00 16.2 8 Nordeste 17 Nordeste 0 1020.2 -0.5 52
2019-02-12 04:00:00 17.1 10 Nordeste 21 Nordeste 0 1020.4 -0.4 49
2019-02-12 03:00:00 17.8 9 Nordeste 24 Nordeste 0 1020.8 0 46
2019-02-12 02:00:00 18.9 14 Nordeste 22 Nordeste 0 1020.7 -0.2 32
2019-02-12 01:00:00 19.8 10 Nordeste 18 Nordeste 0 1020.8 0 23
2019-02-12 00:00:00 20.7 13 Nordeste 21 Norte 0 1020.8 0.2 21
2019-02-11 23:00:00 20.9 15 Norte 24 Nordeste 0 1020.9 0.7 20
2019-02-11 22:00:00 21 16 Norte 26 Norte 0 1020.8 0.7 20
2019-02-11 21:00:00 21 17 Norte 24 Norte 0 1020.6 0.6 21
2019-02-11 20:00:00 21 17 Norte 24 Norte 0 1020.2 0.2 23
2019-02-11 19:00:00 21.7 11 Norte 24 Nordeste 0 1020.1 0.1 28
2019-02-11 18:00:00 24 15 Nordeste 24 Nordeste 0 1020 0 23
2019-02-11 17:00:00 24.6 13 Nordeste 22 Este 0 1020 -0.4 24
2019-02-11 16:00:00 24.6 15 Este 24 Este 0 1020 -1.1 20
2019-02-11 15:00:00 25 14 Nordeste 28 Este 0 1020 -1.7 20
2019-02-11 14:00:00 24.6 17 Este 28 Este 0 1020.4 -1.5 34
2019-02-11 13:00:00 25 15 Este 30 Este 0 1021.1 -0.8 32
2019-02-11 12:00:00 23.9 16 Este 33 Nordeste 0 1021.7 0 37
2019-02-11 11:00:00 23.2 20 Nordeste 32 Nordeste 0 1021.9 0.8 40
2019-02-11 10:00:00 22.3 18 Nordeste 32 Este 0 1021.9 1.5 42
2019-02-11 09:00:00 20.4 18 Nordeste 32 Nordeste 0 1021.7 1.7 48
2019-02-11 08:00:00 18 15 Nordeste 26 Nordeste 0 1021.1 1.1 50
2019-02-11 07:00:00 17.4 17 Nordeste 26 Nordeste 0 1020.4 0.1 50
2019-02-11 06:00:00 17.2 13 Norte 26 Nordeste 0 1020 -0.7 49
2019-02-11 05:00:00 16.7 13 Norte 24 Nordeste 0 1020 -0.7 50
2019-02-11 04:00:00 16.5 14 Norte 21 Nordeste 0 1020.3 -0.5 57
2019-02-11 03:00:00 16.3 13 Norte 22 Nordeste 0 1020.7 -0.5 61
2019-02-11 02:00:00 16.6 14 Norte 22 Norte 0 1020.7 -0.7 58
2019-02-11 01:00:00 16.7 17 Norte 28 Nordeste 0 1020.8 -0.3 64
2019-02-11 00:00:00 17.3 19 Nordeste 33 Nordeste 0 1021.2 0.7 70
2019-02-10 23:00:00 17.4 19 Nordeste 35 Nordeste 0 1021.4 1.2 68
2019-02-10 22:00:00 18.8 19 Nordeste 32 Nordeste 0 1021.1 1.4 38
2019-02-10 21:00:00 19.2 15 Norte 26 Norte 0 1020.5 1.1 23
2019-02-10 20:00:00 18.8 17 Norte 30 Nordeste 0 1020.2 0.7 34
2019-02-10 19:00:00 19.7 18 Nordeste 26 Norte 0 1019.7 0.1 50
2019-02-10 18:00:00 22.5 14 Nordeste 24 Nordeste 0 1019.4 -0.6 28
2019-02-10 17:00:00 23.4 14 Nordeste 22 Este 0 1019.5 -1.1 28
2019-02-10 16:00:00 22.7 12 Este 26 Nordeste 0 1019.6 -1.6 36
2019-02-10 15:00:00 22.3 14 Este 30 Este 0 1020 -1.7 43
2019-02-10 14:00:00 21.9 19 Este 37 Este 0 1020.6 -1.3 50
2019-02-10 13:00:00 22 20 Este 33 Este 0 1021.2 -0.8 51
2019-02-10 12:00:00 22 22 Este 37 Este 0 1021.7 -0.1 47
2019-02-10 11:00:00 21.7 22 Nordeste 37 Nordeste 0 1021.9 0.6 47
2019-02-10 10:00:00 20.4 23 Nordeste 35 Nordeste 0 1022 0.9 49
2019-02-10 09:00:00 17.7 13 Nordeste 22 Nordeste 0 1021.8 1.1 65
2019-02-10 08:00:00 14.4 13 Nordeste 18 Nordeste 0 1021.3 1 75
2019-02-10 07:00:00 13.8 12 Norte 18 Nordeste 0 1021.1 0.9 92
2019-02-10 06:00:00 14.4 11 Nordeste 18 Nordeste 0 1020.7 0.2 92
2019-02-10 05:00:00 13.7 9 Norte 17 Norte 0 1020.3 -0.1 92
2019-02-10 04:00:00 14.6 8 Norte 21 Nordeste 0 1020.2 -0.2 90
2019-02-10 03:00:00 15.3 12 Norte 24 Norte 0 1020.5 0.2 89
2019-02-10 02:00:00 15.1 13 Norte 33 Nordeste 0 1020.4 0.4 88
2019-02-10 01:00:00 14.6 14 Nordeste 22 Nordeste 0 1020.4 0.4 85
2019-02-10 00:00:00 14 10 Nordeste 15 Nordeste 0 1020.3 0.4 59
2019-02-09 23:00:00 14.1 0 Calma 21 Sudoeste 0 1020 0.5 60
2019-02-09 22:00:00 14.4 8 Nordeste 11 Nordeste 0 1020 0.9 48
2019-02-09 21:00:00 14.4 6 Nordeste 21 Norte 0 1019.9 1.3 71
2019-02-09 20:00:00 15.8 8 Norte 22 Nordeste 0 1019.5 0.7 83
2019-02-09 19:00:00 16.9 13 Nordeste 24 Este 0 1019.1 -0.1 79
2019-02-09 18:00:00 18.1 16 Este 24 Este 0 1018.6 -1.1 78
2019-02-09 17:00:00 18.4 15 Este 26 Este 0 1018.8 -1.6 74
2019-02-09 16:00:00 18.8 17 Este 26 Este 0 1019.2 -1.6 72
2019-02-09 15:00:00 19.1 15 Este 26 Este 0 1019.7 -1.7 70
2019-02-09 14:00:00 19.1 18 Este 26 Este 0 1020.4 -1.1 68
2019-02-09 13:00:00 18.9 16 Este 24 Este 0 1020.8 -0.4 68
2019-02-09 12:00:00 18.7 18 Este 26 Este 0 1021.4 0.6 68
2019-02-09 11:00:00 18.3 15 Este 26 Este 0 1021.5 1 68
2019-02-09 10:00:00 17.6 16 Este 26 Este 0 1021.2 1.1 68
2019-02-09 09:00:00 14.8 11 Nordeste 18 Nordeste 0 1020.8 0.9 80
2019-02-09 08:00:00 11 11 Norte 15 Norte 0 1020.5 1 90
2019-02-09 07:00:00 11.1 11 Norte 17 Norte 0 1020.1 0.4 89
2019-02-09 06:00:00 11.3 12 Norte 17 Norte 0 1019.9 -0.3 89
2019-02-09 05:00:00 10.8 13 Norte 15 Norte 0 1019.5 -1.1 89
2019-02-09 04:00:00 11.6 12 Norte 17 Norte 0 1019.7 -1.3 86
2019-02-09 03:00:00 11.8 13 Norte 18 Norte 0 1020.2 -1.1 84
2019-02-09 02:00:00 12.2 13 Norte 18 Norte 0 1020.6 -0.8 83
2019-02-09 01:00:00 12.4 13 Norte 21 Norte 0 1021 -0.4 83
2019-02-09 00:00:00 12.6 15 Norte 21 Norte 0 1021.3 0.3 82
2019-02-08 23:00:00 12.9 15 Norte 21 Norte 0 1021.4 1.1 81
2019-02-08 22:00:00 13.5 14 Norte 18 Norte 0 1021.4 1.5 79
2019-02-08 21:00:00 13.8 12 Norte 15 Norte 0 1021 1.3 76
2019-02-08 20:00:00 15.7 12 Nordeste 24 Nordeste 0 1020.3 0.6 72
2019-02-08 19:00:00 16.4 15 Nordeste 30 Nordeste 0 1019.9 0.1 68
2019-02-08 18:00:00 18 17 Nordeste 32 Nordeste 0 1019.7 -0.4 63
2019-02-08 17:00:00 19.2 17 Este 32 Este 0 1019.7 -1.2 59
2019-02-08 16:00:00 18.9 21 Este 33 Este 0 1019.8 -1.8 61
2019-02-08 15:00:00 19 24 Este 35 Este 0 1020.1 -2.1 60
2019-02-08 14:00:00 19.3 23 Este 33 Este 0 1020.9 -1.5 59
2019-02-08 13:00:00 19.3 22 Este 33 Este 0 1021.6 -0.7 58
2019-02-08 12:00:00 19.5 18 Este 30 Nordeste 0 1022.2 0.4 56
2019-02-08 11:00:00 18.9 17 Este 30 Nordeste 0 1022.4 1.2 57
2019-02-08 10:00:00 17.6 22 Nordeste 30 Norte 0 1022.3 1.6 63
2019-02-08 09:00:00 15.3 10 Nordeste 28 Norte 0 1021.8 1.6 74
2019-02-08 08:00:00 13 15 Norte 21 Norte 0 1021.2 1.1 82
2019-02-08 07:00:00 12.2 15 Norte 18 Norte 0 1020.7 0.3 86
2019-02-08 06:00:00 11.7 14 Norte 18 Norte 0 1020.2 -0.8 87
2019-02-08 05:00:00 11.9 14 Norte 18 Norte 0 1020.1 -1.2 86
2019-02-08 04:00:00 12.1 14 Norte 18 Norte 0 1020.4 -1.2 85
2019-02-08 03:00:00 12.8 8 Norte 22 Norte 0 1021 -0.9 82
2019-02-08 02:00:00 14 15 Norte 22 Norte 0 1021.3 -0.5 80
2019-02-08 01:00:00 13.7 15 Norte 21 Nordeste 0 1021.6 0.1 81
2019-02-08 00:00:00 13 15 Norte 21 Norte 0 1021.9 0.7 83
2019-02-07 23:00:00 12.7 13 Norte 18 Norte 0 1021.8 0.6 81
2019-02-07 22:00:00 13.5 14 Norte 22 Noroeste 0 1021.5 0.5 79
2019-02-07 21:00:00 15.3 17 Nordeste 28 Nordeste 0 1021.2 0.3 74
2019-02-07 20:00:00 15.9 16 Nordeste 30 Nordeste 0 1021.2 0.4 72
2019-02-07 19:00:00 16.6 20 Nordeste 32 Nordeste 0 1021 0.1 71
2019-02-07 18:00:00 18.3 21 Nordeste 32 Nordeste 0 1020.9 -0.1 64
2019-02-07 17:00:00 19.9 19 Nordeste 33 Nordeste 0 1020.8 -0.9 56
2019-02-07 16:00:00 20.5 21 Nordeste 37 Nordeste 0 1020.9 -1.6 55
2019-02-07 15:00:00 20.5 24 Nordeste 37 Nordeste 0 1021 -2 55
2019-02-07 14:00:00 20.5 23 Nordeste 39 Este 0 1021.7 -1.6 56
2019-02-07 13:00:00 20.3 23 Nordeste 39 Nordeste 0 1022.5 -0.7 57
2019-02-07 12:00:00 19.9 23 Nordeste 39 Nordeste 0 1023 0.3 60
2019-02-07 11:00:00 19.1 26 Nordeste 41 Nordeste 0 1023.3 1 62
2019-02-07 10:00:00 17.4 23 Nordeste 33 Norte 0 1023.2 1.4 70
2019-02-07 09:00:00 15.9 15 Norte 24 Norte 0 1022.7 1 79
2019-02-07 08:00:00 13.8 18 Norte 24 Norte 0 1022.3 0.4 86
2019-02-07 07:00:00 13.8 17 Nordeste 24 Nordeste 0 1021.8 -0.2 86
2019-02-07 06:00:00 13.6 17 Norte 24 Norte 0 1021.7 -0.8 86
2019-02-07 05:00:00 13.3 14 Norte 24 Nordeste 0 1021.9 -0.7 86
2019-02-07 04:00:00 13.7 15 Norte 26 Norte 0 1022 -1 86
2019-02-07 03:00:00 13.1 14 Norte 22 Norte 0 1022.5 -0.6 83
2019-02-07 02:00:00 14.7 21 Norte 26 Nordeste 0 1022.6 -0.4 88
2019-02-07 01:00:00 14.5 10 Nordeste 24 Nordeste 0 1023 0.1 88
2019-02-07 00:00:00 14.9 11 Nordeste 21 Nordeste 0 1023.1 0.5 87
2019-02-06 23:00:00 15.1 10 Nordeste 21 Nordeste 0 1023 0.9 85
2019-02-06 22:00:00 15.9 14 Nordeste 30 Norte 0 1022.9 1.1 84
2019-02-06 21:00:00 16.2 20 Norte 32 Norte 0 1022.6 1.3 85
2019-02-06 20:00:00 16.9 17 Norte 26 Norte 0 1022.1 0.9 76
2019-02-06 19:00:00 19 13 Norte 22 Nordeste 0 1021.8 0.4 44
2019-02-06 18:00:00 20.9 15 Nordeste 24 Este 0 1021.3 -0.2 29
2019-02-06 17:00:00 21.5 17 Este 26 Este 0 1021.2 -1 25
2019-02-06 16:00:00 21.9 16 Este 26 Este 0 1021.4 -1.5 26
2019-02-06 15:00:00 22.3 17 Este 26 Este 0 1021.5 -2 27
2019-02-06 14:00:00 22.2 15 Este 26 Este 0 1022.2 -1.6 39
2019-02-06 13:00:00 21.7 16 Este 26 Este 0 1022.9 -0.9 38
2019-02-06 12:00:00 22 15 Este 30 Este 0 1023.5 0.2 34
2019-02-06 11:00:00 21.4 14 Nordeste 28 Nordeste 0 1023.8 1.1 40
2019-02-06 10:00:00 19.3 15 Nordeste 26 Nordeste 0 1023.8 1.4 60
2019-02-06 09:00:00 16.6 9 Nordeste 17 Nordeste 0 1023.3 1.5 70
2019-02-06 08:00:00 12.2 7 Norte 13 Norte 0 1022.7 1 63
2019-02-06 07:00:00 13.9 6 Norte 17 Norte 0 1022.4 0.7 55
2019-02-06 06:00:00 15 12 Norte 22 Norte 0 1021.8 -0.1 54
2019-02-06 05:00:00 15.1 13 Norte 21 Nordeste 0 1021.7 -0.3 48
2019-02-06 04:00:00 16.3 14 Norte 24 Norte 0 1021.7 -0.4 35
2019-02-06 03:00:00 16.7 17 Norte 24 Norte 0 1021.9 -0.2 33
2019-02-06 02:00:00 17.2 15 Norte 24 Nordeste 0 1022 -0.2 28
2019-02-06 01:00:00 16.8 18 Norte 26 Norte 0 1022.1 -0.2 25
2019-02-06 00:00:00 17.9 19 Norte 28 Nordeste 0 1022.1 -0.1 21
2019-02-05 23:00:00 16.7 16 Norte 21 Norte 0 1022.2 0.3 24
2019-02-05 22:00:00 17.1 17 Norte 22 Norte 0 1022.3 0.8 25
2019-02-05 21:00:00 17.4 15 Norte 22 Norte 0 1022.2 0.6 26
2019-02-05 20:00:00 17.9 13 Norte 18 Norte 0 1021.9 0.1 30
2019-02-05 19:00:00 19.1 12 Norte 17 Norte 0 1021.5 -0.4 24
2019-02-05 18:00:00 20.7 6 Nordeste 13 Nordeste 0 1021.6 -0.6 33
2019-02-05 17:00:00 20.4 9 Este 13 Este 0 1021.8 -1 39
2019-02-05 16:00:00 20.8 5 Este 13 Sudeste 0 1021.9 -1.9 31
2019-02-05 15:00:00 20.7 9 Sudeste 13 Este 0 1022.2 -2 43
2019-02-05 14:00:00 20.8 9 Sudeste 15 Sudeste 0 1022.8 -1.9 42
2019-02-05 13:00:00 20.6 12 Sudeste 17 Sudeste 0 1023.8 -0.6 43
2019-02-05 12:00:00 20.8 12 Sudeste 15 Sudeste 0 1024.2 0.5 39
2019-02-05 11:00:00 20.3 10 Este 15 Este 0 1024.7 1.7 54
2019-02-05 10:00:00 19.9 8 Este 11 Este 0 1024.4 2 49
2019-02-05 09:00:00 16 7 Norte 18 Noroeste 0 1023.7 1.8 62
2019-02-05 08:00:00 13.1 11 Noroeste 15 Norte 0 1023 1.4 78
2019-02-05 07:00:00 13 11 Norte 17 Norte 0 1022.4 0.8 81
2019-02-05 06:00:00 14.2 13 Norte 18 Norte 0 1021.9 0.3 77
2019-02-05 05:00:00 14.3 12 Norte 18 Norte 0 1021.6 -0.2 78
2019-02-05 04:00:00 14.5 13 Norte 17 Norte 0 1021.6 0 77
2019-02-05 03:00:00 15.1 12 Norte 18 Norte 0 1021.6 0.3 80
2019-02-05 02:00:00 15.8 10 Norte 21 Nordeste 0 1021.8 0.2 71
2019-02-05 01:00:00 17.3 13 Nordeste 24 Nordeste 0 1021.6 0.6 40
2019-02-05 00:00:00 16.6 11 Nordeste 18 Norte 0 1021.3 0.9 36
2019-02-04 23:00:00 16.4 10 Nordeste 22 Nordeste 0 1021.6 1.7 42
2019-02-04 22:00:00 15.3 6 Este 11 Este 0 1021 1.6 54
2019-02-04 21:00:00 16.7 8 Nordeste 11 Norte 0 1020.4 1.1 53
2019-02-04 20:00:00 17.9 8 Nordeste 13 Nordeste 0 1019.9 0.8 49
2019-02-04 19:00:00 19 9 Nordeste 15 Nordeste 0 1019.4 0.3 70
2019-02-04 18:00:00 19.5 10 Este 15 Este 0 1019.3 -0.2 77
2019-02-04 17:00:00 20.7 10 Este 13 Este 0 1019.1 -0.9 55
2019-02-04 16:00:00 21.4 10 Este 17 Este 0 1019.1 -1.4 49
2019-02-04 15:00:00 20.9 12 Este 18 Este 0 1019.5 -1.4 55
2019-02-04 14:00:00 21 12 Este 21 Este 0 1020 -0.9 59
2019-02-04 13:00:00 20.7 14 Este 26 Este 0 1020.5 0.2 63
2019-02-04 12:00:00 20.5 14 Este 26 Este 0 1020.9 1.1 62
2019-02-04 11:00:00 19.5 18 Nordeste 30 Este 0 1020.9 1.7 66
2019-02-04 10:00:00 18.1 15 Nordeste 32 Nordeste 0 1020.3 1.7 74
2019-02-04 09:00:00 16 15 Nordeste 24 Nordeste 0 1019.8 1.4 83
2019-02-04 08:00:00 14.1 14 Nordeste 22 Norte 0 1019.2 0.9 88
2019-02-04 07:00:00 14.7 16 Nordeste 30 Nordeste 0 1018.6 0.1 84
2019-02-04 06:00:00 14.9 18 Nordeste 33 Nordeste 0 1018.4 -0.2 82
2019-02-04 05:00:00 15 20 Nordeste 37 Nordeste 0 1018.3 -0.3 82
2019-02-04 04:00:00 15.1 20 Nordeste 39 Nordeste 0 1018.5 -0.1 81
2019-02-04 03:00:00 15.2 23 Nordeste 39 Norte 0 1018.6 -- 79
2019-02-04 02:00:00 15.1 24 Nordeste 42 Norte 0 1018.6 -0.6 80
2019-02-04 01:00:00 15.1 31 Norte 50 Norte 0 1018.6 -0.5 77
2019-02-04 00:00:00 15.2 34 Norte 48 Norte 0 -- -- 77
2019-02-03 23:00:00 15.3 32 Norte 50 Nordeste 0 1019.2 0.4 75
2019-02-03 22:00:00 15.3 35 Norte 46 Norte 0 1019.1 0.9 74
2019-02-03 21:00:00 15.2 28 Norte 46 Norte 0 1018.9 1 73
2019-02-03 20:00:00 15.4 26 Norte 46 Norte 0 1018.8 0.9 72
2019-02-03 19:00:00 16.1 28 Nordeste 48 Norte 0 1018.2 0.1 67
2019-02-03 18:00:00 17.1 39 Norte 54 Norte 0 1017.9 -0.3 63
2019-02-03 17:00:00 18.2 40 Norte 58 Nordeste 0 1017.9 -0.9 61
2019-02-03 16:00:00 18.8 36 Nordeste 55 Norte 0 1018.1 -1.6 57
2019-02-03 15:00:00 19.5 36 Nordeste 55 Nordeste 0 1018.2 -2.1 56
2019-02-03 14:00:00 19.2 36 Nordeste 59 Nordeste 0 1018.8 -1.4 54
2019-02-03 13:00:00 18.7 37 Nordeste 58 Nordeste 0 1019.7 -0.1 56
2019-02-03 12:00:00 19.2 36 Nordeste 55 Nordeste 0 1020.3 1.1 55
2019-02-03 11:00:00 18.4 36 Nordeste 59 Norte 0 1020.2 1.5 57
2019-02-03 10:00:00 17.2 45 Norte 63 Norte 0 1019.8 1.8 62
2019-02-03 09:00:00 16.3 39 Norte 58 Norte 0 1019.2 1.4 63
2019-02-03 08:00:00 15.1 30 Norte 52 Norte 0 1018.7 0.6 67
2019-02-03 07:00:00 15.2 35 Norte 58 Norte 0 1018 -0.8 66
2019-02-03 06:00:00 15.6 37 Norte 61 Norte 0 1017.8 -1.4 63
2019-02-03 05:00:00 15.6 28 Norte 54 Norte 0 1018.1 -1.3 65
2019-02-03 04:00:00 15.5 36 Norte 50 Norte 0 1018.8 -1.2 62
2019-02-03 03:00:00 15.4 33 Norte 50 Norte 0 1019.2 -0.9 62
2019-02-03 02:00:00 15.3 30 Norte 46 Nordeste 0 1019.4 -0.6 61
2019-02-03 01:00:00 16.3 26 Norte 50 Norte 0 1020 0.1 61
2019-02-03 00:00:00 16.1 37 Norte 52 Norte 0 1020.1 0.2 60
2019-02-02 23:00:00 16.3 30 Norte 48 Norte 0 1020 0.4 61
2019-02-02 22:00:00 16.4 28 Norte 42 Norte 0 1019.9 0.7 64
2019-02-02 21:00:00 16.3 29 Norte 41 Norte 0 1019.9 1.2 59
2019-02-02 20:00:00 16.2 27 Norte 50 Norte 0 1019.6 1 58
2019-02-02 19:00:00 16.7 34 Norte 55 Norte 0 1019.2 0.4 55
2019-02-02 18:00:00 17.8 36 Norte 54 Norte 0 1018.7 -0.3 57
2019-02-02 17:00:00 18.6 43 Norte 55 Norte 0 1018.6 -0.9 52
2019-02-02 16:00:00 19.6 37 Norte 55 Norte 0 1018.8 -1.2 51
2019-02-02 15:00:00 20.4 43 Norte 55 Norte 0 1019 -1.4 43
2019-02-02 14:00:00 19.3 38 Norte 50 Norte 0 1019.5 -1 50
2019-02-02 13:00:00 18.8 32 Norte 54 Norte 0 1020 0.2 50
2019-02-02 12:00:00 19.4 35 Norte 52 Norte 0 1020.4 0.9 46
2019-02-02 11:00:00 18.2 32 Norte 50 Norte 0 1020.5 1.7 50
2019-02-02 10:00:00 17.5 31 Norte 46 Norte 0 1019.8 1.7 54
2019-02-02 09:00:00 16.6 19 Norte 33 Norte 0 1019.5 2 60
2019-02-02 08:00:00 15.7 14 Norte 32 Norte 0 1018.8 1.6 64
2019-02-02 07:00:00 16.1 22 Norte 33 Norte 0 1018.1 0.9 63
2019-02-02 06:00:00 15.7 17 Norte 32 Norte 0 1017.5 0.3 60
2019-02-02 05:00:00 16 19 Norte 39 Norte 0 1017.2 -0.1 67
2019-02-02 04:00:00 16.2 28 Norte 42 Norte 0 1017.2 0.1 71
2019-02-02 03:00:00 16 23 Norte 33 Norte 0 1017.2 0 77
2019-02-02 02:00:00 14.7 20 Norte 37 Norte 0 1017.3 0.5 78
2019-02-02 01:00:00 16.4 28 Norte 41 Norte 0 1017.1 1 73
2019-02-02 00:00:00 16.3 26 Norte 45 Norte 0 1017.2 1.5 87
2019-02-01 23:00:00 16.7 33 Norte 46 Norte 0 1016.8 1.6 88
2019-02-01 22:00:00 17.5 17 Norte 28 Norte 0 1016.1 1.2 91
2019-02-01 21:00:00 18.1 19 Norte 32 Norte 0 1015.7 1.1 80
2019-02-01 20:00:00 18.4 18 Noroeste 45 Noroeste 0 1015.2 0.7 77
2019-02-01 19:00:00 18.8 19 Noroeste 30 Noroeste 0 1014.9 0.4 76
2019-02-01 18:00:00 19.4 18 Noroeste 42 Oeste 0 1014.6 0.2 73
2019-02-01 17:00:00 19.5 24 Noroeste 42 Noroeste 0 1014.5 -0.6 73
2019-02-01 16:00:00 20.9 30 Oeste 52 Oeste 0 1014.5 -1.2 65
2019-02-01 15:00:00 22 31 Noroeste 46 Oeste 0 1014.4 -2 57
2019-02-01 14:00:00 21.9 27 Oeste 50 Oeste 0 1015.1 -1.6 56
2019-02-01 13:00:00 20.7 22 Noroeste 39 Noroeste 0 1015.7 -1 60
2019-02-01 12:00:00 20.4 13 Noroeste 28 Oeste 0 1016.4 -0.3 56
2019-02-01 11:00:00 20.1 19 Oeste 32 Noroeste 0 1016.7 0.3 59
2019-02-01 10:00:00 19.3 15 Noroeste 37 Norte 0 1016.7 0.6 56
2019-02-01 09:00:00 18.1 15 Noroeste 26 Oeste 0 1016.7 0.6 67
2019-02-01 08:00:00 17.2 10 Oeste 32 Noroeste 0 1016.4 0.2 68
2019-02-01 07:00:00 17 9 Oeste 21 Noroeste 0 1016.1 -0.1 63
2019-02-01 06:00:00 16.9 6 Noroeste 21 Noroeste 0 1016.1 -0.5 61
2019-02-01 05:00:00 16.9 12 Noroeste 18 Noroeste 0 1016.2 -0.6 64
2019-02-01 04:00:00 16.9 12 Noroeste 28 Noroeste 0 1016.2 -0.9 63
2019-02-01 03:00:00 16.9 15 Noroeste 28 Noroeste 0 1016.6 -1 61
2019-02-01 02:00:00 17.1 13 Noroeste 22 Noroeste 0 1016.8 -0.9 59
2019-02-01 01:00:00 17.3 13 Noroeste 26 Noroeste 0 1017.1 -0.8 62
2019-02-01 00:00:00 17.5 13 Noroeste 18 Norte 0 1017.6 0.2 68
2019-01-31 23:00:00 17.5 8 Noroeste 15 Noroeste 0 1017.7 0.6 62
2019-01-31 22:00:00 17.3 6 Noroeste 35 Noroeste 0 1017.9 1.1 60
2019-01-31 21:00:00 17.4 15 Norte 26 Noroeste 0 1017.4 1 60
2019-01-31 20:00:00 17.2 13 Norte 33 Noroeste 0 1017.1 0.7 59
2019-01-31 19:00:00 17.4 14 Norte 32 Noroeste 0 1016.8 0.5 59
2019-01-31 18:00:00 18.1 23 Norte 42 Norte 0 1016.4 -0.2 56
2019-01-31 17:00:00 19.3 26 Norte 45 Noroeste 0 1016.4 -0.7 51
2019-01-31 16:00:00 19 23 Norte 48 Norte 0 1016.3 -1.7 56
2019-01-31 15:00:00 19.4 25 Norte 45 Noroeste 0 1016.6 -2 54
2019-01-31 14:00:00 18.4 23 Norte 42 Norte 0 1017.1 -1.6 62
2019-01-31 13:00:00 19.1 24 Norte 45 Norte 0 1018 -0.8 60
2019-01-31 12:00:00 18.6 21 Norte 41 Norte 0 1018.6 0.3 58
2019-01-31 11:00:00 18 22 Norte 32 Norte 0 1018.7 0.4 68
2019-01-31 10:00:00 17.2 17 Norte 28 Norte 0 1018.8 1 73
2019-01-31 09:00:00 15.9 12 Norte 18 Norte 0 1018.3 0.8 77
2019-01-31 08:00:00 14.5 13 Norte 32 Norte 0 1018.3 0.5 86
2019-01-31 07:00:00 13.8 8 Norte 15 Norte 0 1017.8 -0.3 77
2019-01-31 06:00:00 14.8 12 Norte 24 Norte 0 1017.5 -0.2 69
2019-01-31 05:00:00 15.8 14 Norte 28 Norte 0 1017.8 -0.4 67
2019-01-31 04:00:00 15.8 19 Norte 30 Norte 0 1018.1 -0.8 66
2019-01-31 03:00:00 16.1 16 Norte 32 Norte 0 1017.7 -1.6 66
2019-01-31 02:00:00 15.9 18 Norte 32 Norte 0 1018.2 -1.3 66
2019-01-31 01:00:00 16 16 Norte 32 Norte 0 1018.9 -0.6 66
2019-01-31 00:00:00 16 14 Norte 24 Norte 0 1019.3 -0.2 65
2019-01-30 23:00:00 15.7 15 Norte 37 Norte 0 1019.5 0.3 68
2019-01-30 22:00:00 15.9 14 Norte 35 Norte 0 1019.5 0.7 73
2019-01-30 21:00:00 15.9 14 Norte 28 Norte 0 1019.5 0.9 77
2019-01-30 20:00:00 15.1 15 Norte 33 Norte 0 1019.2 0.9 82
2019-01-30 19:00:00 15.5 22 Norte 37 Norte 0 1018.8 0.6 81
2019-01-30 18:00:00 17.1 20 Norte 45 Norte 0 1018.6 0.2 71
2019-01-30 17:00:00 18.4 28 Norte 41 Norte 0 1018.3 -0.6 63
2019-01-30 16:00:00 19.8 26 Norte 48 Norte 0 1018.2 -1.8 53
2019-01-30 15:00:00 20.2 32 Norte 46 Norte 0 1018.4 -2.6 53
2019-01-30 14:00:00 19.9 33 Norte 48 Norte 0 1018.9 -2.4 57
2019-01-30 13:00:00 19.8 28 Norte 45 Norte 0 1020 -1.1 57
2019-01-30 12:00:00 19.6 28 Norte 45 Nordeste 0 1021 0.5 57
2019-01-30 11:00:00 18.6 28 Norte 45 Norte 0 1021.3 1.1 63
2019-01-30 10:00:00 17.7 27 Norte 37 Norte 0 1021.1 2.1 68
2019-01-30 09:00:00 15.9 19 Norte 45 Norte 0 1020.5 1.9 83
2019-01-30 08:00:00 15.7 22 Norte 39 Norte 0 1020.2 1.6 80
2019-01-30 07:00:00 16.4 27 Norte 42 Nordeste 0 1019 -0.2 70
2019-01-30 06:00:00 15.9 24 Norte 41 Norte 0 1018.6 -1.1 70
2019-01-30 05:00:00 15.8 28 Norte 39 Norte 0 1018.6 -1.8 79
2019-01-30 04:00:00 15.9 21 Nordeste 39 Norte 0 1019.2 -1.2 71
2019-01-30 03:00:00 16.3 19 Norte 37 Nordeste 0 1019.7 -1 74
2019-01-30 02:00:00 16 27 Norte 42 Norte 0 1020.4 -0.6 77
2019-01-30 01:00:00 15.6 28 Norte 46 Norte 0 1020.4 -0.6 83
2019-01-30 00:00:00 15.7 17 Norte 30 Norte 0 1020.7 -0.2 85
2019-01-29 23:00:00 15.2 19 Norte 35 Norte 0 1021 0.3 90
2019-01-29 22:00:00 16.4 20 Norte 30 Norte 0 1021 0.4 76
2019-01-29 21:00:00 16.5 22 Norte 30 Norte 0 1020.9 0.7 81
2019-01-29 20:00:00 16.3 22 Norte 41 Norte 0 1020.7 0.8 83
2019-01-29 19:00:00 15.9 15 Norte 42 Norte 0 1020.6 0.3 87
2019-01-29 18:00:00 17.4 31 Norte 48 Norte 0 1020.2 -0.1 76
2019-01-29 17:00:00 18.4 34 Norte 50 Norte 0 1019.9 -1 68
2019-01-29 16:00:00 19.1 36 Norte 48 Norte 0 1020.3 -1.9 63
2019-01-29 15:00:00 19.9 28 Norte 45 Norte 0 1020.3 -2.1 60
2019-01-29 14:00:00 20 34 Norte 46 Norte 0 1020.9 -1.9 59
2019-01-29 13:00:00 20.1 37 Norte 45 Norte 0 1022.2 -0.3 62
2019-01-29 12:00:00 20.1 26 Norte 42 Norte 0 1022.4 0.3 58
2019-01-29 11:00:00 20 29 Norte 41 Norte 0 1022.8 1.2 58
2019-01-29 10:00:00 17.8 24 Norte 42 Norte 0 1022.5 1.5 67
2019-01-29 09:00:00 16.6 21 Norte 33 Norte 0 1022.1 1.3 70
2019-01-29 08:00:00 16.1 17 Norte 33 Norte 0 1021.6 1.7 73
2019-01-29 07:00:00 15.8 17 Norte 28 Norte 0 1021 0.3 77
2019-01-29 06:00:00 14.2 10 Norte 26 Norte 0 1020.8 0 83
2019-01-29 05:00:00 15 23 Norte 42 Norte 0 1019.9 -0.5 80
2019-01-29 04:00:00 15.2 28 Norte 39 Norte 0 1020.7 -0.2 80
2019-01-29 03:00:00 15 24 Norte 35 Nordeste 0 1020.8 -1 81
2019-01-29 02:00:00 15 23 Norte 42 Norte 0 1020.4 -1.2 80
2019-01-29 01:00:00 15.1 26 Norte 35 Norte 0 1020.9 -0.9 80
2019-01-29 00:00:00 14.9 25 Norte 37 Norte 0 1021.8 0.2 75
2019-01-28 23:00:00 15.4 18 Norte 45 Norte 0 1021.6 0.4 73
2019-01-28 22:00:00 16.1 31 Norte 42 Norte 0 1021.8 0.7 71
2019-01-28 21:00:00 16.1 24 Norte 42 Norte 0 1021.6 0.6 69
2019-01-28 20:00:00 16.4 29 Norte 48 Norte 0 1021.2 0.3 67
2019-01-28 19:00:00 16.8 31 Norte 48 Norte 0 1021.1 0 66
2019-01-28 18:00:00 17.8 35 Norte 50 Norte 0 1021 0.1 64
2019-01-28 17:00:00 19.2 36 Norte 55 Norte 0 1020.9 -0.5 58
2019-01-28 16:00:00 19.5 38 Norte 63 Norte 0 1021.1 -1.3 59
2019-01-28 15:00:00 20.4 42 Norte 63 Norte 0 1020.9 -2.1 52
2019-01-28 14:00:00 20.2 44 Norte 59 Norte 0 1021.4 -1.7 54
2019-01-28 13:00:00 19.7 41 Norte 55 Norte 0 1022.4 -0.3 56
2019-01-28 12:00:00 19.4 36 Norte 52 Norte 0 1023 0.6 57
2019-01-28 11:00:00 18 32 Norte 52 Norte 0 1023.1 1.4 60
2019-01-28 10:00:00 17.5 37 Norte 50 Norte 0 1022.7 1.4 61
2019-01-28 09:00:00 17 26 Norte 39 Norte 0 1022.4 1.5 63
2019-01-28 08:00:00 16.7 23 Norte 35 Norte 0 1021.7 0.8 65
2019-01-28 07:00:00 16.6 28 Norte 39 Norte 0 1021.3 0.3 64
2019-01-28 06:00:00 15.9 23 Norte 35 Norte 0 1020.9 -0.5 70
2019-01-28 05:00:00 15.5 23 Norte 33 Norte 0 1020.9 -0.8 71
2019-01-28 04:00:00 15.1 12 Norte 26 Norte 0 1021 -0.8 81
2019-01-28 03:00:00 14.9 17 Norte 26 Norte 0 1021.4 -0.9 82
2019-01-28 02:00:00 15.4 18 Norte 28 Norte 0 1021.7 -0.9 79
2019-01-28 01:00:00 15.5 23 Norte 28 Norte 0 1021.8 -0.8 80
2019-01-28 00:00:00 15.7 21 Norte 28 Norte 0 1022.3 0 79
2019-01-27 23:00:00 16.3 19 Norte 33 Norte 0 1022.6 0.7 78
2019-01-27 22:00:00 17.2 18 Norte 26 Norte 0 1022.6 1.1 78
2019-01-27 21:00:00 16.8 17 Norte 32 Norte 0 1022.3 1.2 76
2019-01-27 20:00:00 16.9 22 Norte 35 Norte 0 1021.9 1.3 74
2019-01-27 19:00:00 17.3 18 Norte 35 Noroeste 0 1021.5 1.4 74
2019-01-27 18:00:00 18.5 22 Norte 45 Noroeste 0 1021.1 1.2 69
2019-01-27 17:00:00 20 26 Norte 42 Norte 0 1020.6 0.1 61
2019-01-27 16:00:00 21.1 24 Norte 42 Norte 0 1020.1 -1.3 56
2019-01-27 15:00:00 20.5 22 Norte 33 Norte 0 1019.9 -1.9 58
2019-01-27 14:00:00 18.8 15 Este 26 Este 0 1020.5 -1.3 72
2019-01-27 13:00:00 18.9 18 Este 30 Este 0 1021.4 -0.2 72
2019-01-27 12:00:00 20.5 11 Nordeste 26 Norte 0 1021.8 0.4 61
2019-01-27 11:00:00 19.9 15 Norte 37 Noroeste 0 1021.8 0.7 62
2019-01-27 10:00:00 18.6 15 Norte 22 Norte 0 1021.6 1 72
2019-01-27 09:00:00 15.6 10 Norte 22 Norte 0 1021.4 1.5 86
2019-01-27 08:00:00 14.5 10 Noroeste 18 Norte 0 1021.1 1.2 90
2019-01-27 07:00:00 13.5 10 Noroeste 17 Noroeste 0 1020.6 0.8 92
2019-01-27 06:00:00 13.7 12 Noroeste 18 Noroeste 0 1019.9 0 91
2019-01-27 05:00:00 13.7 12 Noroeste 17 Noroeste 0 1019.9 -0.1 91
2019-01-27 04:00:00 13.4 15 Noroeste 22 Noroeste 0 1019.8 -0.1 90
2019-01-27 03:00:00 12.9 0 Calma 9 Nordeste 0 1019.9 0 91
2019-01-27 02:00:00 13.3 6 Este 15 Norte 0 1020 0 89
2019-01-27 01:00:00 13.6 10 Noroeste 15 Norte 0 1019.9 -0.4 85
2019-01-27 00:00:00 14.2 8 Noroeste 13 Noroeste 0 1019.9 0 87
2019-01-26 23:00:00 14.6 9 Noroeste 17 Noroeste 0 1020 0.7 84
2019-01-26 22:00:00 14.6 3 Oeste 11 Norte 0 1020.3 1.7 86
2019-01-26 21:00:00 15.8 11 Norte 32 Noroeste 0 1019.9 1.5 82
2019-01-26 20:00:00 17.3 8 Norte 15 Nordeste 0 1019.3 1.4 77
2019-01-26 19:00:00 17.9 9 Nordeste 15 Nordeste 0 1018.6 1 73
2019-01-26 18:00:00 18.1 10 Este 15 Este 0 1018.4 0.3 76
2019-01-26 17:00:00 18.7 10 Este 15 Nordeste 0 1017.9 -0.1 76
2019-01-26 16:00:00 19.6 9 Este 15 Sudeste 0 1017.6 -1.3 69
2019-01-26 15:00:00 19.6 11 Este 15 Este 0 1018.1 -1.2 67
2019-01-26 14:00:00 20.3 10 Sudeste 17 Este 0 1018 -1 68
2019-01-26 13:00:00 19.3 10 Sudeste 17 Nordeste 0 1018.9 0.2 70
2019-01-26 12:00:00 20.5 8 Norte 28 Noroeste 0 1019.3 1.1 57
2019-01-26 11:00:00 19.4 17 Norte 26 Norte 0 1019 1 61
2019-01-26 10:00:00 18.8 3 Oeste 28 Noroeste 0 1018.7 1.5 72
2019-01-26 09:00:00 16.8 6 Norte 11 Norte 0 1018.2 1.5 81
2019-01-26 08:00:00 15.9 6 Noroeste 13 Noroeste 0 1018 1.7 82
2019-01-26 07:00:00 15.8 10 Norte 18 Noroeste 0 1017.2 0.9 84
2019-01-26 06:00:00 15.8 4 Norte 9 Norte 0 1016.7 0.1 83
2019-01-26 05:00:00 15.8 0 Calma 5 Norte 0 1016.3 0.1 82
2019-01-26 04:00:00 15.8 5 Noroeste 13 Norte 0 1016.3 0.4 81
2019-01-26 03:00:00 15.4 5 Noroeste 9 Norte 0 1016.6 0.6 80
2019-01-26 02:00:00 15.7 3 Este 13 Noroeste 0 1016.2 0.3 77
2019-01-26 01:00:00 16 4 Nordeste 15 Noroeste 0 1015.9 0 73
2019-01-26 00:00:00 15 12 Noroeste 21 Noroeste 0 1016 0.1 80
2019-01-25 23:00:00 15.6 13 Noroeste 21 Noroeste 0 1015.9 0.7 81
2019-01-25 22:00:00 16.5 0 Calma 8 Norte 0 1015.9 1.2 79
2019-01-25 21:00:00 16.7 7 Norte 15 Norte 0 1015.9 1.6 79
2019-01-25 20:00:00 16.2 13 Norte 39 Noroeste 0 1015.2 1.7 84
2019-01-25 19:00:00 16.9 26 Norte 33 Norte 0.2 1014.7 1 84
2019-01-25 18:00:00 18.3 16 Norte 30 Norte 0 1014.3 0.9 72
2019-01-25 17:00:00 20 21 Norte 39 Noroeste 0 1013.5 -0.6 64
2019-01-25 16:00:00 19.8 21 Norte 32 Noroeste 0 1013.7 -0.8 62
2019-01-25 15:00:00 20 17 Noroeste 39 Noroeste 0 1013.4 -1.6 60
2019-01-25 14:00:00 20.1 13 Norte 28 Noroeste 0 1014.1 -1.3 60
2019-01-25 13:00:00 20.4 16 Norte 32 Noroeste 0 1014.5 -0.8 61
2019-01-25 12:00:00 19.8 18 Norte 30 Norte 0 1015 0.1 65
2019-01-25 11:00:00 19.2 15 Norte 30 Norte 0 1015.4 1.3 70
2019-01-25 10:00:00 17.1 14 Norte 18 Norte 0 1015.3 1.9 84
2019-01-25 09:00:00 15.2 10 Norte 35 Noroeste 0 1014.9 1.7 90
2019-01-25 08:00:00 14.3 2 Oeste 15 Nordeste 0 1014.1 1.1 94
2019-01-25 07:00:00 14.2 7 Norte 22 Norte 0 1013.4 0.3 91
2019-01-25 06:00:00 14.6 15 Noroeste 22 Norte 0 1013.2 -0.1 90
2019-01-25 05:00:00 14.8 13 Norte 28 Norte 0 1013 -0.5 92
2019-01-25 04:00:00 14.8 12 Nordeste 37 Norte 0 1013.1 -1.3 93
2019-01-25 03:00:00 15.1 11 Norte 26 Norte 0 1013.3 -0.9 92
2019-01-25 02:00:00 15 14 Norte 26 Norte 0.2 1013.5 -0.8 92
2019-01-25 01:00:00 15.3 12 Norte 26 Norte 0.1 1014.4 0.1 95
2019-01-25 00:00:00 15.5 13 Nordeste 22 Norte 0 1014.2 -0.2 93
2019-01-24 23:00:00 15.3 11 Norte 22 Norte 0 1014.3 0.2 90
2019-01-24 22:00:00 15.5 14 Norte 33 Noroeste 0 1014.3 0.4 89
2019-01-24 21:00:00 15.8 16 Norte 33 Noroeste 0 1014.4 0.4 91
2019-01-24 20:00:00 16 25 Norte 37 Norte 0 1014.1 0.1 90
2019-01-24 19:00:00 16.2 22 Norte 42 Norte 0 1013.9 0.1 83
2019-01-24 18:00:00 16.9 20 Norte 39 Norte 0 1014 0.2 79
2019-01-24 17:00:00 18.2 26 Norte 45 Norte 0 1014 -0.2 69
2019-01-24 16:00:00 19.1 28 Norte 42 Norte 0 1013.8 -1.4 68
2019-01-24 15:00:00 20.5 29 Norte 52 Norte 0 1013.8 -2.2 57
2019-01-24 14:00:00 21.2 34 Norte 50 Norte 0 1014.2 -2.1 51
2019-01-24 13:00:00 20.9 39 Norte 52 Norte 0 1015.2 -1.2 51
2019-01-24 12:00:00 19.7 35 Norte 55 Norte 0 1016 -0.5 52
2019-01-24 11:00:00 18.8 32 Norte 46 Norte 0 1016.3 -0.3 56
2019-01-24 10:00:00 18.1 28 Norte 41 Norte 0 1016.4 0 63
2019-01-24 09:00:00 16.4 18 Norte 28 Norte 0 1016.5 0.2 75
2019-01-24 08:00:00 13.6 13 Norte 26 Norte 0 1016.6 -0.3 86
2019-01-24 07:00:00 13.5 15 Norte 32 Norte 0 1016.4 -1.2 82
2019-01-24 06:00:00 14.1 12 Norte 22 Norte 0 1016.3 -1.3 74
2019-01-24 05:00:00 14.6 16 Nordeste 30 Nordeste 0 1016.9 -1.4 81
2019-01-24 04:00:00 15.3 22 Norte 46 Norte 0 1017.6 -1 72
2019-01-24 03:00:00 16.2 28 Norte 42 Norte 0 1017.6 -1.5 66
2019-01-24 02:00:00 16.1 24 Norte 39 Norte 0 1018.3 -1.1 68
2019-01-24 01:00:00 15.9 13 Norte 30 Norte 0 1018.6 -1 79
2019-01-24 00:00:00 15.3 22 Norte 37 Norte 0 1019.1 -0.6 82
2019-01-23 23:00:00 16 18 Norte 37 Norte 0 1019.4 -0.5 79
2019-01-23 22:00:00 16.3 22 Norte 32 Nordeste 0 1019.6 0 75
2019-01-23 21:00:00 15.4 18 Norte 30 Norte 0 1019.7 -0.1 76
2019-01-23 20:00:00 15.6 17 Norte 35 Norte 0 1019.9 -0.1 70
2019-01-23 19:00:00 16.3 28 Norte 37 Norte 0 1019.6 -0.9 71
2019-01-23 18:00:00 17.1 31 Norte 42 Norte 0 1019.8 -0.9 69
2019-01-23 17:00:00 18.3 32 Norte 42 Norte 0 1020 -1.4 63
2019-01-23 16:00:00 17.6 26 Norte 52 Norte 0 1020.5 -1.8 70
2019-01-23 15:00:00 18.6 34 Norte 45 Norte 0 1020.7 -2.8 64
2019-01-23 14:00:00 19.5 31 Norte 42 Norte 0 1021.4 -2.1 55
2019-01-23 13:00:00 20.2 28 Norte 42 Noroeste 0 1022.3 -0.9 51
2019-01-23 12:00:00 18.2 24 Nordeste 39 Nordeste 0 1023.5 0.5 54
2019-01-23 11:00:00 17.6 27 Nordeste 48 Nordeste 0 1023.5 0.9 54
2019-01-23 10:00:00 17.3 26 Norte 37 Norte 0 1023.2 0.9 56
2019-01-23 09:00:00 16.7 25 Norte 42 Norte 0 1023 0.9 59
2019-01-23 08:00:00 16.1 14 Norte 39 Norte 0 1022.6 0.1 59
2019-01-23 07:00:00 16.4 23 Norte 33 Norte 0 1022.3 -0.5 61
2019-01-23 06:00:00 15.9 18 Norte 35 Norte 0 1022.1 -0.9 58
2019-01-23 05:00:00 15.8 25 Nordeste 37 Norte 0 1022.5 -0.7 57
2019-01-23 04:00:00 15.8 24 Norte 37 Norte 0 1022.8 -0.8 59
2019-01-23 03:00:00 15.8 25 Norte 46 Norte 0 1023 -1.1 59
2019-01-23 02:00:00 16 24 Nordeste 41 Norte 0 1023.2 -0.7 57
2019-01-23 01:00:00 16.2 23 Norte 33 Norte 0 1023.6 -0.2 59
2019-01-23 00:00:00 16.3 23 Norte 39 Norte 0 1024.1 0.8 59
2019-01-22 23:00:00 16.3 24 Norte 39 Norte 0 1023.9 0.9 59
2019-01-22 22:00:00 16.3 21 Norte 37 Norte 0 1023.8 1.4 58
2019-01-22 21:00:00 16.3 26 Norte 45 Norte 0 1023.3 1.1 56
2019-01-22 20:00:00 16.8 27 Norte 41 Norte 0 1023 0.8 59
2019-01-22 19:00:00 17 29 Norte 42 Norte 0 1022.4 0.3 59
2019-01-22 18:00:00 17.7 35 Norte 46 Norte 0 1022.2 -0.1 56
2019-01-22 17:00:00 18.3 27 Nordeste 46 Nordeste 0 1022.2 -0.6 56
2019-01-22 16:00:00 19.6 28 Nordeste 50 Norte 0 1022.1 -1.4 48
2019-01-22 15:00:00 20 27 Nordeste 45 Nordeste 0 1022.3 -1.8 47
2019-01-22 14:00:00 20.4 26 Nordeste 46 Nordeste 0 1022.8 -0.8 46
2019-01-22 13:00:00 20.1 31 Nordeste 46 Nordeste 0 1023.5 0.3 46
2019-01-22 12:00:00 19.5 32 Norte 50 Nordeste 0 1024.1 1.1 51
2019-01-22 11:00:00 19.2 31 Nordeste 59 Norte 0 1023.6 0.7 55
2019-01-22 10:00:00 18.4 30 Norte -- -- -- 1023.2 1 51
2019-01-22 09:00:00 16.6 26 Norte 37 Norte 0 1023 1.5 59
2019-01-22 08:00:00 15.3 21 Norte 35 Norte 0 1022.9 1.2 61
2019-01-22 07:00:00 14.7 19 Norte 37 Norte 0 1022.2 0.5 62
2019-01-22 06:00:00 15.4 25 Norte 33 Norte 0 1021.5 -0.2 61
2019-01-22 05:00:00 15.3 22 Norte 41 Nordeste 0 1021.7 -0.2 54
2019-01-22 04:00:00 15.8 22 Nordeste 42 Norte 0 1021.7 -0.2 54
2019-01-22 03:00:00 16 22 Nordeste 33 Nordeste 0 1021.7 -0.5 61
2019-01-22 02:00:00 16.3 17 Nordeste 41 Norte 0 1021.9 -0.3 60
2019-01-22 01:00:00 15.9 22 Norte 35 Nordeste 0 1021.9 -0.2 59
2019-01-22 00:00:00 15.6 20 Norte 33 Nordeste 0 1022.2 0.2 57
2019-01-21 23:00:00 14.9 22 Norte 35 Norte 0 1022.2 0.5 58
2019-01-21 22:00:00 15.5 22 Norte 33 Norte 0 1022.1 0.7 64
2019-01-21 21:00:00 15.8 20 Norte 32 Norte 0 1022 0.9 69
2019-01-21 20:00:00 15.4 19 Norte 33 Norte 0 1021.7 0.7 70
2019-01-21 19:00:00 16.2 25 Norte 42 Norte 0 1021.4 0.6 63
2019-01-21 18:00:00 17.4 31 Norte 46 Norte 0 1021.1 0.2 61
2019-01-21 17:00:00 18.6 33 Norte 46 Norte 0 1021 -0.2 60
2019-01-21 16:00:00 19.8 32 Norte 52 Norte 0 1020.8 -1 49
2019-01-21 15:00:00 20.2 33 Norte 46 Norte 0 1020.9 -1.8 49
2019-01-21 14:00:00 19.8 31 Norte 59 Norte 0 1021.2 -1.2 46
2019-01-21 13:00:00 19.5 33 Norte 54 Norte 0 1021.8 -0.2 50
2019-01-21 12:00:00 18.6 44 Norte 54 Norte 0 1022.7 0.9 58
2019-01-21 11:00:00 18.2 31 Norte 42 Norte 0 1022.4 0.9 56
2019-01-21 10:00:00 18 26 Norte 39 Nordeste 0 1022 0.7 51
2019-01-21 09:00:00 15.6 14 Norte 28 Norte 0 1021.8 0.8 69
2019-01-21 08:00:00 15.6 18 Norte 32 Norte 0 1021.5 0.6 72
2019-01-21 07:00:00 15.3 22 Norte 42 Norte 0 1021.3 0.4 76
2019-01-21 06:00:00 15.4 17 Norte 32 Norte 0 1021 -0.1 82
2019-01-21 05:00:00 14.9 19 Norte 32 Norte 0 1020.9 -0.7 83
2019-01-21 04:00:00 15.3 21 Norte 30 Norte 0 1020.9 -0.9 85
2019-01-21 03:00:00 15.1 27 Norte 35 Noroeste -- 1021.1 -1.3 88
2019-01-21 02:00:00 14.9 26 Norte 46 Norte 0 1021.6 -0.7 91
2019-01-21 01:00:00 16.1 18 Norte 30 Norte 0 1021.8 -0.3 87
2019-01-21 00:00:00 16 16 Norte 24 Norte 0 1022.4 0.6 83
2019-01-20 23:00:00 15.3 15 Norte 28 Norte 0 1022.3 0.9 82
2019-01-20 22:00:00 15.9 18 Norte 32 Noroeste 0 1022.1 1 75
2019-01-20 21:00:00 16.8 17 Norte 33 Norte 0 1021.8 0.6 82
2019-01-20 20:00:00 16.6 21 Norte 41 Noroeste 0 1021.4 0.5 88
2019-01-20 19:00:00 17.5 21 Noroeste 41 Oeste 0 1021.1 0 84
2019-01-20 18:00:00 18.6 23 Noroeste 50 Noroeste 0 1021.2 -0.4 71
2019-01-20 17:00:00 19.3 35 Noroeste 55 Noroeste 0 1020.9 -1.3 67
2019-01-20 16:00:00 19.8 9 Noroeste 46 Noroeste 0 1021.1 -1.9 60
2019-01-20 15:00:00 20.4 24 Noroeste 42 Noroeste 0 1021.6 -2.2 57
2019-01-20 14:00:00 20.5 18 Noroeste 42 Norte 0 1022.2 -2 56
2019-01-20 13:00:00 21 23 Noroeste 46 Noroeste 0 1023 -0.9 54
2019-01-20 12:00:00 20.7 27 Noroeste 48 Noroeste 0 1023.8 0.4 53
2019-01-20 11:00:00 20.2 23 Noroeste 42 Noroeste 0 1024.2 1 52
2019-01-20 10:00:00 18.4 19 Noroeste 30 Noroeste 0 1023.9 0.7 60
2019-01-20 09:00:00 17.4 8 Norte 28 Noroeste 0 1023.4 0.4 62
2019-01-20 08:00:00 17.1 15 Noroeste 30 Norte 0 1023.2 0 63
2019-01-20 07:00:00 16.9 12 Norte 24 Norte 0 1023.2 -0.4 68
2019-01-20 06:00:00 17 15 Noroeste 28 Noroeste 0 1023 -0.8 69
2019-01-20 05:00:00 17 14 Norte 22 Norte 0 1023.2 -0.9 63
2019-01-20 04:00:00 16.3 14 Norte 21 Norte 0 1023.6 -0.8 62
2019-01-20 03:00:00 16.2 9 Norte 17 Norte 0 1023.8 -0.8 69
2019-01-20 02:00:00 16.4 11 Norte 18 Norte 0 1024.1 -0.5 71
2019-01-20 01:00:00 16.2 18 Norte 30 Norte 0 1024.4 -0.2 67
2019-01-20 00:00:00 16.6 16 Norte 26 Norte 0 1024.6 0.4 74
2019-01-19 23:00:00 16.7 15 Norte 26 Norte 0 1024.6 0.7 66
2019-01-19 22:00:00 16.7 15 Norte 28 Norte 0 1024.6 1.2 68
2019-01-19 21:00:00 16.8 14 Norte 26 Norte 0 1024.2 1.1 70
2019-01-19 20:00:00 17.2 13 Norte 32 Noroeste 0 1023.9 0.8 73
2019-01-19 19:00:00 17.5 17 Norte 26 Norte 0 1023.4 0.2 66
2019-01-19 18:00:00 17.8 21 Norte 32 Norte 0 1023.1 -0.1 61
2019-01-19 17:00:00 18.4 23 Norte 37 Norte 0 1023.1 -0.6 61
2019-01-19 16:00:00 18.3 28 Norte 39 Norte 0 1023.2 -1.3 65
2019-01-19 15:00:00 19 27 Norte 46 Norte 0 1023.2 -2.1 57
2019-01-19 14:00:00 18.3 21 Norte 39 Norte 0 1023.7 -1.7 64
2019-01-19 13:00:00 17.7 23 Norte 39 Norte 0 1024.5 -0.2 69
2019-01-19 12:00:00 17.6 23 Nordeste 39 Norte 0 1025.3 1.6 70
2019-01-19 11:00:00 17.7 29 Norte 42 Norte 0 1025.4 2.3 67
2019-01-19 10:00:00 17.4 26 Norte 41 Norte 0 1024.7 1.9 68
2019-01-19 09:00:00 16.7 21 Nordeste 32 Nordeste 0 1023.7 1.2 62
2019-01-19 08:00:00 16.1 13 Norte 30 Norte 0 1023.1 0.6 62
2019-01-19 07:00:00 15.4 15 Norte 24 Nordeste 0 1022.8 0.5 64
2019-01-19 06:00:00 15.8 14 Nordeste 28 Norte 0 1022.5 -0.1 65
2019-01-19 05:00:00 16.1 18 Norte 26 Nordeste 0 1022.5 -0.2 68
2019-01-19 04:00:00 16 19 Norte 30 Norte 0 1022.3 -0.6 69
2019-01-19 03:00:00 16.4 21 Norte 30 Norte 0 1022.6 -0.3 61
2019-01-19 02:00:00 16.2 19 Norte 28 Nordeste 0 1022.7 -0.3 61
2019-01-19 01:00:00 15.7 15 Norte 28 Norte 0 1022.9 0.4 69
2019-01-19 00:00:00 15.5 19 Norte 26 Norte 0 1022.9 0.7 65